TimeEST,TemperatureF,Dew PointF,Humidity,Sea Level PressureIn,VisibilityMPH,Wind Direction,Wind SpeedMPH,Gust SpeedMPH,PrecipitationIn,Events,Conditions,WindDirDegrees,DateUTC
12:52 AM,18.0,14.0,84,30.30,8.0,Calm,Calm,-,N/A,,Clear,0,2012-12-07 05:52:00
1:52 AM,19.0,15.1,85,30.30,8.0,Calm,Calm,-,N/A,,Clear,0,2012-12-07 06:52:00
2:52 AM,19.9,16.0,85,30.28,9.0,Calm,Calm,-,N/A,,Clear,0,2012-12-07 07:52:00
3:52 AM,21.9,19.0,89,30.27,9.0,Calm,Calm,-,N/A,,Mostly Cloudy,0,2012-12-07 08:52:00
4:25 AM,21.9,18.0,85,30.25,8.0,Calm,Calm,-,N/A,,Scattered Clouds,0,2012-12-07 09:25:00
4:52 AM,21.9,19.0,89,30.26,8.0,Calm,Calm,-,N/A,,Clear,0,2012-12-07 09:52:00
5:19 AM,23.0,19.9,88,30.25,8.0,Calm,Calm,-,N/A,,Mostly Cloudy,0,2012-12-07 10:19:00
5:52 AM,25.0,21.0,85,30.24,9.0,Calm,Calm,-,N/A,,Overcast,0,2012-12-07 10:52:00
6:52 AM,27.0,23.0,85,30.25,9.0,WNW,3.5,-,N/A,,Overcast,300,2012-12-07 11:52:00
7:52 AM,28.0,25.0,88,30.24,7.0,Calm,Calm,-,N/A,,Overcast,0,2012-12-07 12:52:00
8:52 AM,30.9,27.0,85,30.25,9.0,Calm,Calm,-,N/A,,Overcast,0,2012-12-07 13:52:00
9:08 AM,32.0,28.0,85,30.24,9.0,Calm,Calm,-,N/A,,Overcast,0,2012-12-07 14:08:00
9:52 AM,35.1,30.0,82,30.23,10.0,Calm,Calm,-,N/A,,Overcast,0,2012-12-07 14:52:00
10:52 AM,39.9,30.9,70,30.21,10.0,Calm,Calm,-,N/A,,Overcast,0,2012-12-07 15:52:00
11:52 AM,43.0,32.0,65,30.17,10.0,Calm,Calm,-,N/A,,Clear,0,2012-12-07 16:52:00
12:52 PM,46.0,34.0,63,30.15,10.0,SW,6.9,-,N/A,,Mostly Cloudy,230,2012-12-07 17:52:00
1:52 PM,46.0,34.0,63,30.14,10.0,Variable,3.5,-,N/A,,Mostly Cloudy,0,2012-12-07 18:52:00
2:52 PM,46.0,34.0,63,30.12,10.0,South,4.6,-,N/A,,Overcast,190,2012-12-07 19:52:00
3:52 PM,45.0,37.0,74,30.11,10.0,Calm,Calm,-,0.00,Rain,Light Rain,0,2012-12-07 20:52:00
4:52 PM,42.1,39.0,89,30.11,8.0,Calm,Calm,-,0.01,Rain,Light Rain,0,2012-12-07 21:52:00
5:52 PM,41.0,39.0,93,30.09,7.0,Calm,Calm,-,0.00,,Overcast,0,2012-12-07 22:52:00
6:26 PM,41.0,39.0,93,30.09,5.0,Calm,Calm,-,N/A,,Overcast,0,2012-12-07 23:26:00
6:37 PM,41.0,39.0,93,30.09,6.0,Calm,Calm,-,N/A,,Overcast,0,2012-12-07 23:37:00
6:52 PM,41.0,39.0,93,30.09,7.0,SE,3.5,-,N/A,,Overcast,140,2012-12-07 23:52:00
7:21 PM,42.1,39.0,89,30.09,9.0,Calm,Calm,-,0.01,Rain,Light Rain,0,2012-12-08 00:21:00
7:45 PM,43.0,39.9,89,30.08,5.0,Calm,Calm,-,0.02,Rain,Light Rain,0,2012-12-08 00:45:00
7:52 PM,43.0,39.9,89,30.09,7.0,Calm,Calm,-,0.02,Rain,Light Rain,0,2012-12-08 00:52:00
8:22 PM,42.1,39.9,92,30.09,3.0,Calm,Calm,-,0.00,Rain,Light Rain,0,2012-12-08 01:22:00
8:52 PM,42.1,39.9,92,30.09,5.0,Calm,Calm,-,0.01,Rain,Light Rain,0,2012-12-08 01:52:00
9:12 PM,43.0,41.0,93,30.08,7.0,Calm,Calm,-,0.00,Rain,Light Rain,0,2012-12-08 02:12:00
9:52 PM,42.1,39.9,92,30.07,5.0,Calm,Calm,-,0.00,Rain,Light Rain,0,2012-12-08 02:52:00
10:52 PM,44.1,42.1,93,30.06,7.0,Calm,Calm,-,0.01,Rain,Light Rain,0,2012-12-08 03:52:00
11:52 PM,45.0,42.1,90,30.05,10.0,South,3.5,-,0.00,,Overcast,180,2012-12-08 04:52:00